Time;durP1;ratioP1;P1;durP2;ratioP2;P2;SDS_P1;SDS_P2;PMS_P1;PMS_P2;Temp;Humidity;BMP_temperature;BMP_pressure;BME280_temperature;BME280_humidity;BME280_pressure;Samples;Min_cycle;Max_cycle;Signal;HPM_P1;HPM_P2
2022/11/22 00:02:39;;;;;;;5.63;4.03;;;;;;;17.63;57.03;94706.63;10438702;28;20117;-29
2022/11/22 00:07:39;;;;;;;6.93;4.10;;;;;;;17.57;57.16;94711.91;10434065;28;20048;-29
2022/11/22 00:12:40;;;;;;;4.78;3.20;;;;;;;17.61;57.39;94721.03;10447944;28;20085;-30
2022/11/22 00:17:40;;;;;;;5.63;3.17;;;;;;;17.58;57.46;94731.25;10439350;28;20032;-29
2022/11/22 00:22:41;;;;;;;4.23;3.27;;;;;;;17.57;57.87;94729.59;10445455;28;20063;-30
2022/11/22 00:27:41;;;;;;;4.73;3.00;;;;;;;17.50;57.38;94730.63;10440161;28;20045;-30
2022/11/22 00:32:41;;;;;;;4.63;2.63;;;;;;;17.56;57.41;94743.13;10435239;28;20594;-29
2022/11/22 00:37:42;;;;;;;5.23;3.27;;;;;;;17.56;57.84;94749.00;10434356;28;20299;-29
2022/11/22 00:42:42;;;;;;;4.53;2.77;;;;;;;17.56;57.48;94756.59;10438610;28;20292;-30
2022/11/22 00:47:43;;;;;;;3.92;2.90;;;;;;;17.60;57.99;94755.66;10438524;28;20034;-30
2022/11/22 00:52:43;;;;;;;6.00;2.83;;;;;;;17.65;57.51;94763.91;10434369;28;20057;-29
2022/11/22 00:57:43;;;;;;;6.57;3.03;;;;;;;17.67;57.34;94749.50;10434557;28;20029;-30
2022/11/22 01:02:44;;;;;;;3.60;2.73;;;;;;;17.61;57.47;94764.06;10435593;28;20298;-31
2022/11/22 01:07:44;;;;;;;3.63;2.73;;;;;;;17.56;57.52;94763.38;10429862;28;20033;-30
2022/11/22 01:12:45;;;;;;;4.07;2.88;;;;;;;17.57;57.34;94775.13;10446986;28;20637;-30
2022/11/22 01:17:45;;;;;;;4.73;2.70;;;;;;;17.57;57.68;94780.19;10436716;28;20028;-29
2022/11/22 01:22:45;;;;;;;4.67;2.40;;;;;;;17.56;57.40;94783.59;10441582;28;20290;-29
2022/11/22 01:27:46;;;;;;;4.00;2.50;;;;;;;17.55;57.29;94782.75;10437401;28;20029;-30
2022/11/22 01:32:47;;;;;;;3.55;2.50;;;;;;;17.54;57.55;94792.91;10432043;28;20024;-30
2022/11/22 01:37:47;;;;;;;3.97;2.47;;;;;;;17.55;57.45;94799.63;10432911;28;20029;-29
2022/11/22 01:42:56;;;;;;;2.97;1.93;;;;;;;17.46;57.37;94793.13;10437554;28;20063;-29
2022/11/22 01:47:58;;;;;;;4.28;2.10;;;;;;;17.55;57.45;94797.09;10438502;28;20041;-29
2022/11/22 01:53:14;;;;;;;5.47;2.25;;;;;;;17.54;57.21;94790.38;10437307;28;20048;-30
2022/11/22 01:58:15;;;;;;;4.07;2.33;;;;;;;17.65;57.88;94803.59;10435716;28;20040;-30
2022/11/22 02:03:17;;;;;;;3.25;2.03;;;;;;;17.62;57.58;94798.59;10439640;28;20041;-30
2022/11/22 02:08:33;;;;;;;4.30;2.60;;;;;;;17.59;57.80;94799.50;10430035;28;20052;-29
2022/11/22 02:13:38;;;;;;;5.22;2.22;;;;;;;17.54;57.78;94800.50;10442750;28;20392;-29
2022/11/22 02:18:39;;;;;;;5.22;2.20;;;;;;;17.52;57.69;94809.84;10432076;28;20525;-30
2022/11/22 02:23:54;;;;;;;3.00;1.85;;;;;;;17.51;57.63;94800.59;10429922;28;20109;-30
2022/11/22 02:29:00;;;;;;;3.05;2.00;;;;;;;17.51;58.05;94810.72;10432292;28;20037;-30
2022/11/22 02:34:00;;;;;;;3.53;2.10;;;;;;;17.50;57.46;94809.88;10432369;28;20032;-30
2022/11/22 02:39:01;;;;;;;5.20;2.40;;;;;;;17.49;58.35;94822.59;10443816;28;20040;-29
2022/11/22 02:44:01;;;;;;;8.15;2.05;;;;;;;17.47;57.79;94816.72;10441319;28;20044;-29
2022/11/22 02:49:02;;;;;;;4.90;2.45;;;;;;;17.50;57.59;94834.34;10430365;28;20052;-30
2022/11/22 02:54:02;;;;;;;2.63;2.10;;;;;;;17.50;57.41;94834.34;10436869;28;20040;-29
2022/11/22 02:59:02;;;;;;;4.68;2.35;;;;;;;17.46;58.00;94830.22;10447108;28;20044;-29
2022/11/22 03:04:03;;;;;;;3.87;2.27;;;;;;;17.62;57.28;94839.06;10440395;28;20143;-30
2022/11/22 03:09:03;;;;;;;3.67;2.42;;;;;;;17.61;58.23;94845.00;10438051;28;20374;-30
2022/11/22 03:14:04;;;;;;;3.57;2.20;;;;;;;17.59;57.57;94827.34;10447640;28;20036;-30
2022/11/22 03:19:04;;;;;;;2.28;1.88;;;;;;;17.55;57.90;94833.34;10445873;28;20298;-30
2022/11/22 03:24:06;;;;;;;4.00;2.13;;;;;;;17.54;57.31;94835.91;10443525;28;20056;-30
2022/11/22 03:29:06;;;;;;;4.00;1.83;;;;;;;17.48;57.56;94829.31;10446653;28;20029;-30
2022/11/22 03:34:07;;;;;;;3.80;1.87;;;;;;;17.49;57.48;94838.56;10443257;28;20096;-29
2022/11/22 03:39:08;;;;;;;3.05;1.77;;;;;;;17.48;57.66;94836.09;10446400;28;20033;-29
2022/11/22 03:44:08;;;;;;;4.70;1.70;;;;;;;17.45;57.86;94842.06;10447701;28;20082;-29
2022/11/22 03:49:10;;;;;;;3.42;1.60;;;;;;;17.45;57.87;94841.22;10442071;28;20039;-30
2022/11/22 03:54:11;;;;;;;2.50;1.88;;;;;;;17.41;57.82;94827.81;10436913;28;20021;-30
2022/11/22 03:59:12;;;;;;;2.38;1.58;;;;;;;17.49;57.81;94852.94;10439083;28;20491;-29
2022/11/22 04:04:12;;;;;;;3.08;1.65;;;;;;;17.46;57.71;94846.25;10442546;28;20040;-30
2022/11/22 04:09:12;;;;;;;3.03;1.90;;;;;;;17.49;57.43;94842.81;10443003;28;20037;-29
2022/11/22 04:19:32;;;;;;;2.05;1.65;;;;;;;17.57;58.03;94858.63;10438125;28;20594;-29
2022/11/22 04:29:51;;;;;;;4.80;1.88;;;;;;;17.49;57.81;94863.06;10439541;28;20044;-30
2022/11/22 04:34:51;;;;;;;3.63;1.70;;;;;;;17.48;57.58;94856.34;10440014;28;20134;-29
2022/11/22 04:39:52;;;;;;;2.30;1.20;;;;;;;17.50;57.87;94857.13;10441751;28;20414;-30
2022/11/22 04:44:52;;;;;;;1.63;1.20;;;;;;;17.49;57.74;94875.69;10437366;28;20044;-31
2022/11/22 04:49:52;;;;;;;3.47;1.30;;;;;;;17.52;57.64;94868.03;10449142;28;20028;-29
2022/11/22 04:54:53;;;;;;;2.67;1.50;;;;;;;17.51;57.64;94872.25;10446129;28;20032;-32
2022/11/22 04:59:53;;;;;;;7.17;1.67;;;;;;;17.51;57.19;94867.19;10448814;28;20024;-30
2022/11/22 05:04:53;;;;;;;2.57;1.20;;;;;;;17.57;57.28;94871.28;10441254;28;20028;-29
2022/11/22 05:09:54;;;;;;;2.50;1.63;;;;;;;17.58;56.75;94873.75;10432835;28;20060;-31
2022/11/22 05:14:54;;;;;;;2.53;1.00;;;;;;;17.58;56.80;94883.88;10427497;28;20298;-29
2022/11/22 05:19:54;;;;;;;4.97;1.27;;;;;;;17.69;56.47;94891.19;10434309;28;20658;-30
2022/11/22 05:24:55;;;;;;;2.70;1.27;;;;;;;17.75;55.86;94896.09;10438955;28;20060;-30
2022/11/22 05:29:55;;;;;;;2.17;1.03;;;;;;;17.69;55.98;94892.03;10436067;28;20038;-29
2022/11/22 05:34:56;;;;;;;8.37;2.47;;;;;;;17.64;55.59;94898.06;10439198;28;20566;-29
2022/11/22 05:39:56;;;;;;;6.28;1.40;;;;;;;17.63;55.56;94898.94;10435807;28;20037;-30
2022/11/22 05:44:56;;;;;;;8.40;1.70;;;;;;;17.60;56.05;94891.44;10433858;28;20048;-30
2022/11/22 05:49:57;;;;;;;4.13;1.60;;;;;;;17.57;55.89;94896.59;10434491;28;20041;-30
2022/11/22 05:54:57;;;;;;;3.83;1.50;;;;;;;17.59;55.34;94897.38;10432750;28;20044;-30
2022/11/22 05:59:58;;;;;;;7.90;2.93;;;;;;;17.59;56.58;94905.75;10433080;28;20033;-30
2022/11/22 06:04:58;;;;;;;7.03;3.20;;;;;;;17.59;56.61;94923.47;10438329;28;20040;-29
2022/11/22 06:09:58;;;;;;;7.40;3.20;;;;;;;17.59;56.45;94920.13;10428852;28;20530;-29
2022/11/22 06:14:59;;;;;;;4.37;2.57;;;;;;;17.56;57.26;94923.56;10432272;28;20515;-30
2022/11/22 06:19:59;;;;;;;7.77;3.13;;;;;;;17.57;56.72;94937.06;10436213;28;20507;-30
2022/11/22 06:24:59;;;;;;;5.38;2.70;;;;;;;17.65;56.85;94942.75;10436617;28;20556;-29
2022/11/22 06:30:00;;;;;;;8.53;3.00;;;;;;;17.61;55.59;94941.16;10434635;28;20411;-30
2022/11/22 06:35:02;;;;;;;8.43;2.87;;;;;;;17.33;51.96;94952.78;10432757;28;20574;-29
2022/11/22 06:40:02;;;;;;;10.90;2.72;;;;;;;17.33;53.02;94967.97;10434036;28;20530;-30
2022/11/22 06:45:03;;;;;;;9.07;3.28;;;;;;;17.38;54.65;94976.28;10433085;28;20124;-29
2022/11/22 06:50:04;;;;;;;5.68;2.58;;;;;;;17.41;55.05;94988.88;10435616;28;20487;-29
2022/11/22 06:55:04;;;;;;;8.77;2.67;;;;;;;17.42;55.48;94990.53;10431873;28;20025;-30
2022/11/22 07:00:05;;;;;;;5.88;2.13;;;;;;;17.42;55.41;95000.66;10431201;28;20033;-30
2022/11/22 07:05:06;;;;;;;7.57;2.53;;;;;;;17.43;55.62;95002.31;10429612;28;20083;-29
2022/11/22 07:10:07;;;;;;;4.72;2.25;;;;;;;17.43;55.95;95014.97;10429307;28;20451;-28
2022/11/22 07:15:08;;;;;;;5.65;2.08;;;;;;;17.43;55.77;95035.22;10425944;28;20099;-30
2022/11/22 07:20:08;;;;;;;5.45;1.92;;;;;;;17.44;55.74;95034.34;10431356;28;20033;-29
2022/11/22 07:25:09;;;;;;;4.10;2.20;;;;;;;17.42;55.81;95049.53;10440567;28;20033;-30
2022/11/22 07:30:10;;;;;;;3.38;2.03;;;;;;;17.45;55.80;95046.97;10443929;28;20037;-29
2022/11/22 07:35:10;;;;;;;4.32;2.05;;;;;;;17.51;56.31;95061.16;10441312;28;20480;-29
2022/11/22 07:40:11;;;;;;;5.43;1.97;;;;;;;17.53;55.97;95056.91;10437100;28;20029;-29
2022/11/22 07:45:11;;;;;;;7.80;2.30;;;;;;;17.47;55.87;95077.25;10441524;28;20112;-29
2022/11/22 07:50:12;;;;;;;6.80;2.10;;;;;;;17.44;56.55;95073.13;10439736;28;20029;-30
2022/11/22 07:55:12;;;;;;;2.47;1.48;;;;;;;17.43;55.78;95073.16;10438406;28;20029;-29
2022/11/22 08:00:13;;;;;;;4.03;1.70;;;;;;;17.39;55.91;95074.06;10440580;28;20028;-30
2022/11/22 08:05:13;;;;;;;3.70;1.60;;;;;;;17.39;55.63;95079.13;10436778;28;20047;-29
2022/11/22 08:10:14;;;;;;;3.88;1.85;;;;;;;17.40;55.71;95070.72;10436032;28;20120;-29
2022/11/22 08:15:16;;;;;;;3.15;1.67;;;;;;;17.33;55.46;95072.47;10438884;28;20552;-29
2022/11/22 08:20:16;;;;;;;2.83;1.50;;;;;;;17.35;55.81;95087.63;10440124;28;20370;-29
2022/11/22 08:25:16;;;;;;;4.30;1.70;;;;;;;17.36;55.78;95080.06;10437795;28;20503;-30
2022/11/22 08:30:17;;;;;;;4.07;1.70;;;;;;;17.34;55.80;95085.97;10436552;28;20340;-30
2022/11/22 08:35:17;;;;;;;5.07;1.60;;;;;;;17.32;55.61;95067.47;10440901;28;20028;-31
2022/11/22 08:40:18;;;;;;;3.47;1.47;;;;;;;17.36;56.42;95069.09;10437242;28;20031;-30
2022/11/22 08:45:18;;;;;;;3.53;1.33;;;;;;;17.46;55.41;95075.59;10434303;28;20295;-30
2022/11/22 08:50:18;;;;;;;4.47;1.53;;;;;;;17.45;55.56;95071.41;10440659;28;20033;-29
2022/11/22 08:55:19;;;;;;;4.50;1.88;;;;;;;17.38;56.04;95067.34;10435791;28;20025;-29
2022/11/22 09:00:19;;;;;;;4.17;1.77;;;;;;;17.36;56.59;95069.94;10434412;28;20035;-30
2022/11/22 09:05:19;;;;;;;2.45;1.10;;;;;;;17.35;55.70;95058.13;10434157;28;20034;-29
2022/11/22 09:10:20;;;;;;;3.07;1.43;;;;;;;17.30;56.07;95051.47;10434470;28;20044;-30
2022/11/22 09:15:21;;;;;;;3.75;1.50;;;;;;;17.36;56.29;95061.50;10435494;28;20798;-29
2022/11/22 09:20:21;;;;;;;2.85;1.38;;;;;;;17.35;56.04;95052.22;10437413;28;20040;-30
2022/11/22 09:25:22;;;;;;;1.97;1.23;;;;;;;17.34;56.17;95070.78;10435015;28;20045;-29
2022/11/22 09:30:22;;;;;;;4.25;1.27;;;;;;;17.35;56.32;95072.47;10440535;28;20028;-31
2022/11/22 09:35:22;;;;;;;2.63;1.20;;;;;;;17.27;55.69;95064.19;10435185;28;20028;-29
2022/11/22 09:40:23;;;;;;;3.57;1.20;;;;;;;17.32;55.45;95067.47;10434320;28;20036;-29
2022/11/22 09:45:51;;;;;;;3.30;1.03;;;;;;;17.32;55.77;95082.66;10437381;28;20299;-29
2022/11/22 09:51:12;;;;;;;4.45;1.35;;;;;;;17.38;55.28;95077.47;10431602;28;20087;-30
2022/11/22 09:56:18;;;;;;;2.65;0.98;;;;;;;17.44;55.31;95082.41;10434429;28;20036;-30
2022/11/22 10:01:25;;;;;;;3.22;1.35;;;;;;;17.45;55.81;95086.59;10435154;28;20029;-30
2022/11/22 10:06:27;;;;;;;;;;;;;;;17.37;55.70;95098.56;10428757;28;20090;-29
2022/11/22 10:11:34;;;;;;;2.47;1.15;;;;;;;17.35;55.58;95097.75;10436367;28;19924;-29
2022/11/22 10:16:44;;;;;;;3.70;1.13;;;;;;;17.33;55.75;95102.00;10432852;28;20044;-29
2022/11/22 10:21:46;;;;;;;3.65;1.17;;;;;;;17.31;56.36;95103.75;10427436;28;20044;-29
2022/11/22 10:26:47;;;;;;;3.22;1.20;;;;;;;17.33;56.01;95095.25;10433914;28;20490;-29
2022/11/22 10:31:56;;;;;;;2.22;1.30;;;;;;;17.30;55.05;95095.31;10428117;28;20029;-29
2022/11/22 10:37:08;;;;;;;2.53;0.80;;;;;;;17.32;55.58;95085.19;10435473;28;20041;-30
2022/11/22 10:42:49;;;;;;;2.72;0.93;;;;;;;17.31;55.34;95096.97;10440538;28;20029;-32
2022/11/22 10:48:19;;;;;;;2.38;1.00;;;;;;;17.31;55.32;95099.50;10424569;28;20492;-30
2022/11/22 10:53:32;;;;;;;1.85;1.05;;;;;;;17.30;55.15;95091.94;10416306;28;20064;-29
2022/11/22 10:58:44;;;;;;;3.35;1.10;;;;;;;17.28;55.61;95101.28;10440736;28;20033;-30
2022/11/22 11:03:47;;;;;;;2.30;0.90;;;;;;;17.29;55.49;95082.69;10430779;28;20030;-29
2022/11/22 11:08:52;;;;;;;2.67;0.90;;;;;;;17.39;55.14;95087.56;10439150;28;20025;-30
2022/11/22 11:13:57;;;;;;;2.58;0.73;;;;;;;17.43;55.14;95075.69;10441139;28;20029;-31
2022/11/22 11:19:13;;;;;;;1.58;0.70;;;;;;;17.44;54.83;95072.28;10437757;28;20120;-29
2022/11/22 11:24:15;;;;;;;2.78;0.85;;;;;;;17.45;54.34;95056.22;10444682;28;20025;-29
2022/11/22 11:29:15;;;;;;;1.98;0.88;;;;;;;17.46;54.68;95068.00;10446176;28;20036;-29
2022/11/22 11:34:25;;;;;;;2.43;1.00;;;;;;;17.48;54.24;95067.13;10440709;28;20095;-30
2022/11/22 11:39:31;;;;;;;1.80;0.70;;;;;;;17.52;54.45;95070.41;10437497;28;20796;-30
2022/11/22 11:44:35;;;;;;;2.90;0.80;;;;;;;17.53;54.59;95069.53;10442815;28;20032;-29
2022/11/22 11:49:37;;;;;;;1.90;0.60;;;;;;;17.53;54.50;95067.88;10440487;28;20041;-31
2022/11/22 11:54:40;;;;;;;1.23;0.55;;;;;;;17.52;53.85;95065.34;10443192;28;20020;-29
2022/11/22 11:59:40;;;;;;;3.28;0.80;;;;;;;17.58;54.15;95050.03;10440451;28;20037;-29
2022/11/22 12:04:48;;;;;;;1.70;0.90;;;;;;;17.64;53.86;95050.72;10430393;28;20040;-30
2022/11/22 12:09:51;;;;;;;2.13;0.98;;;;;;;17.65;53.64;95041.44;10432015;28;20060;-30
2022/11/22 12:15:03;;;;;;;1.88;0.88;;;;;;;17.67;53.81;95047.31;10435883;28;20033;-28
2022/11/22 12:20:10;;;;;;;2.55;1.10;;;;;;;17.64;54.33;95050.72;10441776;28;20568;-30
2022/11/22 12:25:34;;;;;;;5.75;2.30;;;;;;;17.70;54.39;95047.22;10436475;28;20108;-30
2022/11/22 12:30:36;;;;;;;4.05;2.20;;;;;;;17.66;54.46;95038.06;10439360;28;20174;-29
2022/11/22 12:35:43;;;;;;;4.50;1.90;;;;;;;17.61;54.58;95034.78;10439232;28;20626;-29
2022/11/22 12:40:52;;;;;;;4.07;1.58;;;;;;;17.54;55.23;95033.25;10434406;28;20029;-30
2022/11/22 12:45:56;;;;;;;2.70;1.40;;;;;;;17.46;54.72;95020.78;10437937;28;20644;-30
2022/11/22 12:51:02;;;;;;;4.07;1.83;;;;;;;17.56;54.95;95022.25;10439361;28;20037;-29
2022/11/22 12:56:09;;;;;;;2.97;1.70;;;;;;;17.55;54.43;95020.59;10435423;28;20037;-30
2022/11/22 13:01:36;;;;;;;4.32;1.67;;;;;;;17.59;54.92;95017.09;10433185;28;20029;-30
2022/11/22 13:06:52;;;;;;;;;;;;;;;17.50;55.36;94997.06;10436012;28;20045;-29
2022/11/22 13:12:01;;;;;;;3.83;1.50;;;;;;;17.60;53.02;95010.34;10427809;28;19917;-30
2022/11/22 13:17:06;;;;;;;1.55;1.02;;;;;;;17.57;51.39;95012.97;10433728;28;20119;-29
2022/11/22 13:22:19;;;;;;;1.13;0.82;;;;;;;17.51;54.08;95008.03;10433489;28;20040;-30
2022/11/22 13:27:29;;;;;;;2.33;1.00;;;;;;;17.54;50.64;94997.84;10438340;28;20021;-29
2022/11/22 13:32:34;;;;;;;3.20;0.82;;;;;;;17.57;51.23;94997.78;10438803;28;20017;-30
2022/11/22 13:37:41;;;;;;;2.58;1.00;;;;;;;17.55;49.68;95000.34;10438288;28;20086;-29
2022/11/22 13:42:42;;;;;;;3.15;0.80;;;;;;;17.56;49.38;95001.19;10434275;28;20091;-30
2022/11/22 13:47:42;;;;;;;1.98;0.90;;;;;;;17.53;50.24;95011.34;10428442;28;20458;-30
2022/11/22 13:52:51;;;;;;;3.78;1.10;;;;;;;17.49;50.37;95000.47;10426420;28;20064;-28
2022/11/22 13:57:51;;;;;;;5.10;1.33;;;;;;;17.45;50.87;95003.13;10436267;28;20065;-30
2022/11/22 14:03:14;;;;;;;2.60;1.10;;;;;;;17.48;51.72;94998.00;10440717;28;20095;-29
2022/11/22 14:08:41;;;;;;;1.88;1.00;;;;;;;17.46;49.28;95009.84;10433048;28;20458;-29
2022/11/22 14:14:13;;;;;;;1.25;0.90;;;;;;;17.45;51.30;95026.72;10430423;28;20037;-31
2022/11/22 14:19:50;;;;;;;4.20;1.20;;;;;;;17.45;50.27;95023.34;10429068;28;20110;-29
2022/11/22 14:25:29;;;;;;;2.35;1.10;;;;;;;17.42;54.32;95020.91;10429688;28;20563;-29
2022/11/22 14:30:50;;;;;;;2.85;1.02;;;;;;;17.43;52.24;95025.94;10433980;28;20407;-30
2022/11/22 14:36:06;;;;;;;1.70;0.90;;;;;;;17.44;49.74;95032.66;10429648;28;20091;-30
2022/11/22 14:41:25;;;;;;;1.20;0.88;;;;;;;17.48;49.84;95025.84;10433045;28;20017;-29
2022/11/22 14:46:30;;;;;;;2.95;0.88;;;;;;;17.49;50.50;95030.03;10436915;28;20029;-31
2022/11/22 14:51:32;;;;;;;5.32;1.20;;;;;;;17.50;49.31;95039.28;10444936;28;20479;-30
2022/11/22 14:56:34;;;;;;;2.30;0.95;;;;;;;17.46;49.07;95037.66;10443903;28;20099;-30
2022/11/22 15:01:47;;;;;;;1.50;1.13;;;;;;;17.43;50.16;95048.69;10439982;28;20043;-29
2022/11/22 15:07:25;;;;;;;1.90;1.40;;;;;;;17.40;53.63;95055.53;10429696;28;20036;-31
2022/11/22 15:12:37;;;;;;;1.52;1.00;;;;;;;17.39;51.18;95054.69;10444027;28;20033;-30
2022/11/22 15:17:38;;;;;;;1.75;1.02;;;;;;;17.39;51.53;95054.69;10439557;28;20120;-29
2022/11/22 15:22:40;;;;;;;1.92;0.93;;;;;;;17.37;52.68;95065.69;10441479;28;20056;-30
2022/11/22 15:27:47;;;;;;;1.55;1.00;;;;;;;17.38;51.94;95067.34;10439621;28;20036;-30
2022/11/22 15:32:51;;;;;;;1.15;0.60;;;;;;;17.41;49.31;95069.84;10437641;28;20622;-28
2022/11/22 15:38:00;;;;;;;1.90;0.98;;;;;;;17.32;49.58;95072.53;10437209;28;20032;-30
2022/11/22 15:43:01;;;;;;;1.00;0.73;;;;;;;17.38;48.72;95077.47;10436788;28;20041;-30
2022/11/22 15:48:10;;;;;;;4.28;1.20;;;;;;;17.45;48.75;95086.59;10442387;28;20396;-30
2022/11/22 15:53:21;;;;;;;2.97;1.10;;;;;;;17.49;49.43;95101.66;10431359;28;20506;-30
2022/11/22 15:58:22;;;;;;;3.35;1.05;;;;;;;17.52;49.97;95103.31;10441164;28;20419;-29
2022/11/22 16:03:34;;;;;;;2.53;0.88;;;;;;;17.53;49.75;95107.50;10430590;28;20049;-29
2022/11/22 16:08:34;;;;;;;5.88;1.50;;;;;;;17.41;51.72;95111.13;10435882;28;20034;-31
2022/11/22 16:13:35;;;;;;;3.47;1.30;;;;;;;17.46;52.42;95124.50;10437828;28;20499;-29
2022/11/22 16:18:37;;;;;;;3.35;1.00;;;;;;;17.46;53.58;95136.31;10434391;28;20395;-31
2022/11/22 16:23:39;;;;;;;2.35;1.13;;;;;;;17.48;54.28;95132.91;10437412;28;20033;-29
2022/11/22 16:28:39;;;;;;;2.72;1.23;;;;;;;17.49;54.55;95136.28;10441756;28;20503;-30
2022/11/22 16:33:40;;;;;;;2.25;1.25;;;;;;;17.49;54.08;95147.22;10444206;28;20122;-29
2022/11/22 16:38:41;;;;;;;1.20;0.70;;;;;;;17.50;55.33;95148.88;10437540;28;20100;-29
2022/11/22 16:43:42;;;;;;;2.35;1.13;;;;;;;17.53;51.35;95155.56;10437879;28;20357;-30
2022/11/22 16:48:42;;;;;;;1.85;0.90;;;;;;;17.57;50.56;95154.66;10436634;28;20037;-30
2022/11/22 16:53:45;;;;;;;2.10;1.10;;;;;;;17.54;52.08;95154.69;10427753;28;20509;-30
2022/11/22 16:58:47;;;;;;;1.85;0.90;;;;;;;17.57;52.12;95157.19;10433790;28;20120;-31
2022/11/22 17:03:51;;;;;;;2.42;1.00;;;;;;;17.52;52.26;95147.16;10433403;28;20479;-32
2022/11/22 17:08:54;;;;;;;3.08;1.30;;;;;;;17.58;53.76;95146.19;10438804;28;20041;-30
2022/11/22 17:13:55;;;;;;;2.47;1.10;;;;;;;17.61;53.73;95151.19;10435259;28;20061;-32
2022/11/22 17:18:55;;;;;;;7.93;1.65;;;;;;;17.66;53.92;95169.63;10433693;28;20087;-30
2022/11/22 17:23:58;;;;;;;3.43;1.63;;;;;;;17.61;56.13;95176.47;10436123;28;20044;-30
2022/11/22 17:28:59;;;;;;;3.05;1.30;;;;;;;17.54;55.60;95180.00;10434477;28;20037;-29
2022/11/22 17:33:59;;;;;;;3.13;1.35;;;;;;;17.57;54.91;95187.56;10437171;28;20638;-29
2022/11/22 17:39:05;;;;;;;6.83;0.90;;;;;;;17.64;52.80;95184.00;10435135;28;20119;-30
2022/11/22 17:44:06;;;;;;;4.85;1.50;;;;;;;17.65;53.14;95205.94;10441571;28;20399;-33
2022/11/22 17:49:07;;;;;;;2.97;1.25;;;;;;;17.58;56.17;95197.63;10441071;28;20124;-31
2022/11/22 17:54:07;;;;;;;1.15;0.90;;;;;;;17.61;52.83;95204.31;10433283;28;20060;-31
2022/11/22 17:59:08;;;;;;;2.50;1.10;;;;;;;17.59;55.05;95208.59;10438607;28;20036;-30
2022/11/22 18:04:08;;;;;;;1.70;0.97;;;;;;;17.63;53.70;95205.97;10444023;28;20088;-30
2022/11/22 18:09:08;;;;;;;2.50;1.13;;;;;;;17.65;54.00;95223.66;10432164;28;20599;-31
2022/11/22 18:14:10;;;;;;;2.93;1.00;;;;;;;17.61;55.70;95204.31;10434481;28;20044;-30
2022/11/22 18:19:10;;;;;;;5.35;1.80;;;;;;;17.55;57.14;95214.56;10434190;28;20112;-30
2022/11/22 18:24:11;;;;;;;3.80;1.27;;;;;;;17.66;55.21;95222.78;10435488;28;20505;-30
2022/11/22 18:29:12;;;;;;;4.70;1.30;;;;;;;17.75;54.47;95218.34;10441511;28;20437;-29
2022/11/22 18:34:13;;;;;;;4.20;1.30;;;;;;;17.74;54.44;95220.94;10433986;28;20029;-30
2022/11/22 18:39:13;;;;;;;2.60;1.50;;;;;;;17.65;55.79;95218.59;10433404;28;20041;-30
2022/11/22 18:44:14;;;;;;;3.13;1.23;;;;;;;17.60;56.89;95225.44;10438750;28;20766;-30
2022/11/22 18:49:14;;;;;;;4.55;1.25;;;;;;;17.59;56.00;95224.59;10433754;28;20108;-30
2022/11/22 18:54:15;;;;;;;5.07;1.30;;;;;;;17.65;54.64;95248.97;10423710;28;20574;-29
2022/11/22 18:59:15;;;;;;;6.72;1.58;;;;;;;17.66;55.53;95260.75;10433646;28;20051;-30
2022/11/22 19:04:16;;;;;;;6.45;1.67;;;;;;;17.61;56.58;95257.47;10435619;28;20037;-30
2022/11/22 19:09:16;;;;;;;5.25;1.60;;;;;;;17.56;56.89;95267.66;10430634;28;20453;-30
2022/11/22 19:14:17;;;;;;;3.20;1.20;;;;;;;17.56;56.45;95264.31;10427695;28;20459;-30
2022/11/22 19:19:17;;;;;;;4.73;1.10;;;;;;;17.50;58.37;95269.50;10440027;28;20029;-30
2022/11/22 19:24:17;;;;;;;4.65;1.58;;;;;;;17.53;57.76;95269.44;10431926;28;20430;-30
2022/11/22 19:29:18;;;;;;;3.33;1.20;;;;;;;17.52;57.60;95272.81;10429723;28;20044;-30
2022/11/22 19:34:19;;;;;;;3.30;1.20;;;;;;;17.55;57.49;95273.59;10440096;28;20032;-30
2022/11/22 19:39:19;;;;;;;2.17;0.77;;;;;;;17.65;56.47;95279.31;10438468;28;20388;-30
2022/11/22 19:44:20;;;;;;;4.07;1.27;;;;;;;17.66;56.45;95270.88;10447186;28;20447;-30
2022/11/22 19:49:20;;;;;;;3.60;1.30;;;;;;;17.66;56.45;95270.88;10440354;28;20299;-30
2022/11/22 19:54:20;;;;;;;2.90;1.20;;;;;;;17.59;57.65;95270.13;10433572;28;20025;-30
2022/11/22 19:59:21;;;;;;;3.43;1.30;;;;;;;17.60;56.19;95260.84;10439609;28;20426;-30
2022/11/22 20:04:21;;;;;;;1.93;1.00;;;;;;;17.64;54.50;95264.97;10432982;28;20041;-30
2022/11/22 20:09:22;;;;;;;4.87;1.70;;;;;;;17.66;55.81;95251.44;10441020;28;20024;-30
2022/11/22 20:14:22;;;;;;;3.22;1.23;;;;;;;17.66;54.27;95255.69;10437238;28;20067;-29
2022/11/22 20:19:23;;;;;;;4.63;1.30;;;;;;;17.69;54.83;95258.13;10425580;28;20055;-31
2022/11/22 20:24:24;;;;;;;3.40;0.93;;;;;;;17.67;55.24;95253.09;10441783;28;20098;-31
2022/11/22 20:29:24;;;;;;;3.72;1.55;;;;;;;17.70;54.45;95262.34;10434442;28;20036;-30
2022/11/22 20:34:25;;;;;;;4.90;1.40;;;;;;;17.69;53.88;95270.78;10435951;28;20395;-30
2022/11/22 20:39:25;;;;;;;2.90;1.17;;;;;;;17.67;53.93;95268.28;10435239;28;20493;-30
2022/11/22 20:44:25;;;;;;;3.97;1.20;;;;;;;17.67;54.53;95278.41;10433218;28;20491;-30
2022/11/22 20:49:27;;;;;;;1.88;1.00;;;;;;;17.71;53.04;95279.19;10411777;28;20548;-30
2022/11/22 20:54:27;;;;;;;2.20;1.08;;;;;;;17.74;53.56;95285.03;10430335;28;20021;-29
2022/11/22 20:59:27;;;;;;;1.93;0.80;;;;;;;17.67;53.37;95272.53;10438673;28;20094;-30
2022/11/22 21:04:28;;;;;;;2.15;1.35;;;;;;;17.71;54.59;95279.19;10431643;28;20506;-31
2022/11/22 21:09:28;;;;;;;1.67;0.97;;;;;;;17.70;54.76;95298.63;10429219;28;20476;-30
2022/11/22 21:14:29;;;;;;;4.63;1.05;;;;;;;17.63;54.63;95296.22;10431464;28;20271;-29
2022/11/22 21:19:29;;;;;;;3.53;1.20;;;;;;;17.60;54.87;95301.34;10433719;28;20580;-30
2022/11/22 21:24:29;;;;;;;2.73;0.73;;;;;;;17.63;53.90;95296.22;10436152;28;20082;-31
2022/11/22 21:29:30;;;;;;;2.83;0.87;;;;;;;17.63;54.67;95308.88;10433113;28;20492;-30
2022/11/22 21:34:30;;;;;;;1.35;0.70;;;;;;;17.60;54.97;95306.41;10438525;28;20463;-30
2022/11/22 21:39:30;;;;;;;3.33;1.00;;;;;;;17.61;54.61;95313.13;10434684;28;20029;-30
2022/11/22 21:44:32;;;;;;;1.47;0.87;;;;;;;17.59;54.71;95323.28;10431144;28;20043;-30
2022/11/22 21:49:33;;;;;;;3.58;1.17;;;;;;;17.61;54.72;95323.25;10438596;28;20056;-31
2022/11/22 21:54:33;;;;;;;3.37;0.83;;;;;;;17.60;54.58;95321.59;10434112;28;20032;-31
2022/11/22 21:59:34;;;;;;;2.28;0.90;;;;;;;17.61;53.29;95321.56;10436374;28;20107;-30
2022/11/22 22:04:34;;;;;;;3.35;1.20;;;;;;;17.64;54.73;95324.03;10432420;28;20037;-30
2022/11/22 22:09:35;;;;;;;2.00;0.80;;;;;;;17.64;55.95;95311.38;10432422;28;20279;-30
2022/11/22 22:14:35;;;;;;;1.90;0.90;;;;;;;17.64;54.99;95313.06;10433598;28;20040;-30
2022/11/22 22:19:38;;;;;;;4.00;0.80;;;;;;;17.57;54.62;95306.47;10430733;28;20276;-31
2022/11/22 22:24:39;;;;;;;2.72;1.27;;;;;;;17.58;54.65;95320.78;10433912;28;20036;-30
2022/11/22 22:29:39;;;;;;;2.37;1.10;;;;;;;17.56;54.26;95305.63;10430036;28;20033;-29
2022/11/22 22:34:39;;;;;;;5.17;1.43;;;;;;;17.57;54.46;95319.13;10436226;28;20029;-30
2022/11/22 22:39:40;;;;;;;2.80;0.90;;;;;;;17.57;54.19;95319.13;10433026;28;20037;-30
2022/11/22 22:44:40;;;;;;;2.70;0.97;;;;;;;17.60;53.79;95331.72;10437281;28;20056;-30
2022/11/22 22:49:40;;;;;;;3.10;1.10;;;;;;;17.58;54.44;95323.31;10436235;28;20309;-31
2022/11/22 22:54:41;;;;;;;2.13;0.77;;;;;;;17.60;53.90;95326.66;10437631;28;20036;-30
2022/11/22 22:59:41;;;;;;;3.27;1.07;;;;;;;17.56;53.86;95332.66;10440817;28;20040;-30
2022/11/22 23:04:42;;;;;;;2.97;1.17;;;;;;;17.46;54.28;95319.31;10437439;28;20032;-30
2022/11/22 23:09:42;;;;;;;6.77;0.97;;;;;;;17.51;54.05;95324.28;10440611;28;20048;-30
2022/11/22 23:14:43;;;;;;;2.50;0.70;;;;;;;17.51;54.31;95332.69;10443461;28;20029;-30
2022/11/22 23:19:43;;;;;;;1.73;0.73;;;;;;;17.56;53.74;95330.13;10438807;28;20678;-30
2022/11/22 23:24:43;;;;;;;2.93;1.13;;;;;;;17.58;55.90;95328.38;10444864;28;20299;-30
2022/11/22 23:29:44;;;;;;;2.35;0.88;;;;;;;17.59;54.34;95337.63;10438571;28;20092;-30
2022/11/22 23:34:44;;;;;;;1.90;0.77;;;;;;;17.54;54.23;95336.88;10435423;28;20037;-30
2022/11/22 23:39:44;;;;;;;4.13;1.10;;;;;;;17.54;54.49;95347.84;10439960;28;20597;-30
2022/11/22 23:44:45;;;;;;;1.00;0.75;;;;;;;17.56;53.18;95345.28;10436047;28;20030;-30